Time;durP1;ratioP1;P1;durP2;ratioP2;P2;SDS_P1;SDS_P2;PMS_P1;PMS_P2;Temp;Humidity;BMP_temperature;BMP_pressure;BME280_temperature;BME280_humidity;BME280_pressure;Samples;Min_cycle;Max_cycle;Signal;HPM_P1;HPM_P2
2022/04/19 00:00:51;;;;;;;0.00;0.00;;;;;;;5.85;81.89;98612.69;4860010;29;20422;-78
2022/04/19 00:03:17;;;;;;;0.00;0.00;;;;;;;5.85;81.75;98625.97;4835597;29;20065;-78
2022/04/19 00:05:43;;;;;;;0.00;0.00;;;;;;;5.85;81.70;98615.34;4844286;29;20065;-79
2022/04/19 00:15:13;;;;;;;0.00;0.00;;;;;;;5.80;81.35;98617.94;5798529;23;20552;-82
2022/04/19 00:17:38;;;;;;;0.00;0.00;;;;;;;5.78;81.46;98615.56;4834526;29;20025;-81
2022/04/19 00:20:04;;;;;;;0.00;0.00;;;;;;;5.76;81.59;98617.66;4863013;29;20093;-81
2022/04/19 00:22:30;;;;;;;0.00;0.00;;;;;;;5.76;81.76;98612.34;4861017;29;20486;-80
2022/04/19 00:24:56;;;;;;;0.00;0.00;;;;;;;5.76;81.90;98609.69;4864988;29;20033;-81
2022/04/19 00:27:30;;;;;;;0.00;0.00;;;;;;;5.73;81.43;98610.22;4881831;29;20032;-82
2022/04/19 00:36:44;;;;;;;0.00;0.00;;;;;;;5.64;81.94;98609.91;4861930;29;20059;-82
2022/04/19 00:39:10;;;;;;;0.00;0.00;;;;;;;5.67;82.02;98605.94;4878834;29;20116;-82
2022/04/19 00:41:36;;;;;;;0.00;0.00;;;;;;;5.71;82.29;98607.84;4878642;29;20025;-80
2022/04/19 00:44:01;;;;;;;0.00;0.00;;;;;;;5.67;82.18;98608.59;4861913;29;20045;-80
2022/04/19 00:46:27;;;;;;;0.00;0.00;;;;;;;5.68;81.92;98610.19;4860311;29;20060;-80
2022/04/19 00:48:52;;;;;;;0.00;0.00;;;;;;;5.68;82.43;98607.53;4876994;29;20077;-79
2022/04/19 00:51:19;;;;;;;0.00;0.00;;;;;;;5.64;82.53;98601.94;4886314;29;20069;-77
2022/04/19 00:53:47;;;;;;;0.00;0.00;;;;;;;5.56;82.48;98607.72;4896958;29;20036;-79
2022/04/19 00:56:12;;;;;;;0.00;0.00;;;;;;;5.56;82.66;98603.19;4891612;29;20033;-78
2022/04/19 00:58:38;;;;;;;0.00;0.00;;;;;;;5.66;82.52;98602.47;4861998;29;20102;-79
2022/04/19 01:01:03;;;;;;;0.30;0.30;;;;;;;5.62;82.54;98606.69;4859694;29;20064;-79
2022/04/19 01:03:29;;;;;;;0.00;0.00;;;;;;;5.61;82.38;98605.91;4861422;29;20040;-80
2022/04/19 01:05:55;;;;;;;0.00;0.00;;;;;;;5.62;83.12;98606.69;4859408;29;20045;-80
2022/04/19 01:08:22;;;;;;;0.00;0.00;;;;;;;5.64;82.55;98601.13;4860895;29;20061;-79
2022/04/19 01:10:48;;;;;;;0.00;0.00;;;;;;;5.63;82.96;98600.34;4859245;29;20072;-79
2022/04/19 01:13:17;;;;;;;0.00;0.00;;;;;;;5.60;82.84;98604.31;4875143;29;20033;-79
2022/04/19 01:15:46;;;;;;;;;;;;;;;5.58;83.44;98600.31;4875216;29;20051;-79
2022/04/19 01:18:13;;;;;;;0.00;0.00;;;;;;;5.51;82.97;98594.41;4876473;29;19924;-77
2022/04/19 01:20:39;;;;;;;0.00;0.00;;;;;;;5.41;82.88;98601.22;4877158;29;20029;-79
2022/04/19 01:23:05;;;;;;;0.00;0.00;;;;;;;5.36;83.48;98598.53;4879477;29;20528;-78
2022/04/19 01:25:38;;;;;;;0.00;0.00;;;;;;;5.37;83.80;98600.16;4879129;29;20066;-78
2022/04/19 01:28:04;;;;;;;0.00;0.00;;;;;;;5.34;83.36;98599.84;4863381;29;20120;-80
2022/04/19 01:30:32;;;;;;;0.00;0.00;;;;;;;5.36;83.49;98590.59;4877555;29;20065;-77
2022/04/19 01:32:58;;;;;;;0.00;0.00;;;;;;;5.35;83.05;98594.28;4877311;29;20524;-79
2022/04/19 01:35:23;;;;;;;0.00;0.00;;;;;;;5.30;83.24;98588.94;4877639;29;20033;-81
2022/04/19 01:37:50;;;;;;;0.00;0.00;;;;;;;5.33;83.19;98595.59;4877621;29;20041;-79
2022/04/19 01:40:16;;;;;;;0.00;0.00;;;;;;;5.32;83.16;98596.63;4879281;29;20041;-80
2022/04/19 01:42:53;;;;;;;0.00;0.00;;;;;;;5.37;83.03;98589.53;4862315;29;20480;-79
2022/04/19 01:48:54;;;;;;;0.00;0.00;;;;;;;5.43;82.31;98593.81;5219092;23;20048;-83
2022/04/19 01:54:14;;;;;;;0.00;0.00;;;;;;;5.39;82.22;98583.97;4992143;23;20425;-80
2022/04/19 01:59:39;;;;;;;0.00;0.00;;;;;;;5.37;82.82;98588.72;5449189;23;21152;31
2022/04/19 02:02:04;;;;;;;0.00;0.00;;;;;;;5.39;82.98;98583.97;4889424;29;20064;-80
2022/04/19 02:08:06;;;;;;;0.00;0.00;;;;;;;5.38;82.46;98577.06;5072843;23;20073;-82
2022/04/19 02:11:16;;;;;;;0.00;0.00;;;;;;;5.45;82.71;98585.59;4875853;29;20041;-81
2022/04/19 02:13:41;;;;;;;0.00;0.00;;;;;;;5.40;82.60;98583.72;4865984;29;20382;-81
2022/04/19 02:16:09;;;;;;;0.00;0.00;;;;;;;5.39;82.46;98587.41;4861200;29;20036;-79
2022/04/19 02:18:34;;;;;;;0.00;0.00;;;;;;;5.36;82.63;98592.41;4861233;29;20029;-80
2022/04/19 02:21:00;;;;;;;0.00;0.00;;;;;;;5.40;82.54;98577.63;4845060;29;20525;-78
2022/04/19 02:23:26;;;;;;;0.00;0.00;;;;;;;5.40;82.62;98578.41;4860532;29;20033;-81
2022/04/19 02:25:54;;;;;;;0.00;0.00;;;;;;;5.42;82.76;98583.44;4844751;29;20069;-79
2022/04/19 02:31:28;;;;;;;0.00;0.00;;;;;;;5.46;82.51;98595.16;5565248;23;20056;-79
2022/04/19 02:40:25;;;;;;;0.00;0.00;;;;;;;5.37;82.05;98592.19;5116027;23;20577;-79
2022/04/19 02:42:53;;;;;;;0.00;0.00;;;;;;;5.39;82.27;98589.28;4876925;29;20108;-79
2022/04/19 02:45:20;;;;;;;0.00;0.00;;;;;;;5.39;82.34;98584.75;4876287;29;20044;-77
2022/04/19 02:47:47;;;;;;;0.00;0.00;;;;;;;5.40;82.32;98583.72;4876373;29;20075;-80
2022/04/19 02:50:12;;;;;;;0.00;0.00;;;;;;;5.48;81.93;98587.78;4875807;29;20033;-80
2022/04/19 02:52:38;;;;;;;0.00;0.00;;;;;;;5.45;81.51;98580.31;4876698;29;20041;-80
2022/04/19 02:55:04;;;;;;;0.00;0.00;;;;;;;5.41;82.10;98581.88;4875604;29;20057;-79
2022/04/19 02:57:29;;;;;;;0.20;0.20;;;;;;;5.31;81.71;98589.72;4876551;29;20045;-79
2022/04/19 02:59:54;;;;;;;0.00;0.00;;;;;;;5.29;82.06;98585.47;4875859;29;20120;-80
2022/04/19 03:02:20;;;;;;;0.00;0.00;;;;;;;5.33;81.51;98582.34;4876102;29;20394;-80
2022/04/19 03:04:46;;;;;;;0.00;0.00;;;;;;;5.35;82.05;98590.84;4876221;29;20044;-80
2022/04/19 03:07:14;;;;;;;0.00;0.00;;;;;;;5.32;81.45;98584.16;4876361;29;20040;-80
2022/04/19 03:09:41;;;;;;;0.00;0.00;;;;;;;5.32;81.52;98580.72;4882907;29;20045;-82
2022/04/19 03:12:07;;;;;;;0.00;0.00;;;;;;;5.31;81.79;98598.50;4887895;29;20036;-83
2022/04/19 03:14:33;;;;;;;0.00;0.00;;;;;;;5.28;81.55;98601.66;4876800;29;20120;-81
2022/04/19 03:17:00;;;;;;;0.00;0.00;;;;;;;5.28;81.70;98597.16;4876002;29;20037;-79
2022/04/19 03:19:25;;;;;;;0.00;0.00;;;;;;;5.31;81.51;98601.16;4876587;29;20029;-79
2022/04/19 03:21:50;;;;;;;0.00;0.00;;;;;;;5.32;81.49;98608.03;4877076;29;20136;-80
2022/04/19 03:29:44;;;;;;;0.00;0.00;;;;;;;5.37;81.91;98608.09;4877500;29;20128;-80
2022/04/19 03:32:09;;;;;;;0.00;0.00;;;;;;;5.38;81.38;98607.06;4874816;29;20120;-80
2022/04/19 03:34:35;;;;;;;0.00;0.00;;;;;;;5.30;81.64;98610.16;4879410;29;20033;-79
2022/04/19 03:37:00;;;;;;;0.00;0.00;;;;;;;5.28;82.25;98612.25;4879693;29;20029;-80
2022/04/19 03:39:56;;;;;;;0.20;0.20;;;;;;;5.25;81.44;98612.75;4888664;29;20041;-83
2022/04/19 03:43:18;;;;;;;0.00;0.00;;;;;;;5.26;82.17;98612.50;4882608;29;20064;-83
2022/04/19 03:49:06;;;;;;;0.00;0.00;;;;;;;5.09;82.29;98623.22;4953786;23;20088;-82
2022/04/19 03:51:33;;;;;;;0.00;0.00;;;;;;;5.06;82.72;98621.06;4866252;29;20029;-83
2022/04/19 04:01:02;;;;;;;0.00;0.00;;;;;;;4.97;83.27;98628.66;5326348;23;20121;-79
2022/04/19 04:03:34;;;;;;;0.00;0.00;;;;;;;4.97;82.93;98619.91;4875095;29;20619;-81
2022/04/19 04:27:35;;;;;;;0.00;0.00;;;;;;;4.96;83.89;98634.22;5001943;23;20061;-79
2022/04/19 04:30:13;;;;;;;0.00;0.00;;;;;;;4.90;84.14;98629.91;4825980;29;20037;-78
2022/04/19 04:32:38;;;;;;;0.00;0.00;;;;;;;4.95;84.18;98636.03;4825992;29;20049;-79
2022/04/19 04:35:07;;;;;;;0.00;0.00;;;;;;;5.01;84.02;98633.47;4824998;29;20110;-77
2022/04/19 04:37:32;;;;;;;0.00;0.00;;;;;;;4.97;83.58;98633.16;4824845;29;20563;-77
2022/04/19 04:39:58;;;;;;;0.00;0.00;;;;;;;4.96;83.55;98627.03;4824429;29;20064;-77
2022/04/19 04:42:23;;;;;;;0.00;0.00;;;;;;;4.99;84.56;98636.34;4808256;29;20041;-78
2022/04/19 04:44:49;;;;;;;0.00;0.00;;;;;;;5.01;84.54;98636.91;4808026;29;20034;-77
2022/04/19 04:50:03;;;;;;;0.00;0.00;;;;;;;5.06;84.33;98644.13;4814686;29;20107;-78
2022/04/19 04:52:29;;;;;;;0.00;0.00;;;;;;;5.07;84.16;98638.56;4808236;29;20042;-78
2022/04/19 04:54:54;;;;;;;0.00;0.00;;;;;;;5.08;83.59;98642.81;4824840;29;20413;-78
2022/04/19 04:57:20;;;;;;;0.00;0.00;;;;;;;5.09;83.50;98640.94;4824743;29;20043;-77
2022/04/19 04:59:47;;;;;;;0.00;0.00;;;;;;;5.11;83.30;98642.34;4808175;29;20121;-77
2022/04/19 05:02:12;;;;;;;0.00;0.00;;;;;;;5.08;82.64;98642.81;4808037;29;20034;-78
2022/04/19 05:04:38;;;;;;;0.00;0.00;;;;;;;5.14;83.31;98656.94;4807944;29;20509;-77
2022/04/19 05:07:04;;;;;;;0.00;0.00;;;;;;;5.18;82.90;98662.53;4807982;29;20037;-78
2022/04/19 05:09:29;;;;;;;0.00;0.00;;;;;;;5.15;83.39;98666.50;4824304;29;20087;-77
2022/04/19 05:11:55;;;;;;;0.00;0.00;;;;;;;5.08;83.08;98660.59;4807854;29;20034;-77
2022/04/19 05:14:20;;;;;;;1.98;1.10;;;;;;;5.07;83.35;98665.06;4808013;29;20034;-77
2022/04/19 05:16:46;;;;;;;0.00;0.00;;;;;;;5.15;83.10;98674.44;4807730;29;20037;-77
2022/04/19 05:19:12;;;;;;;0.00;0.00;;;;;;;5.21;82.76;98669.97;4807522;29;20031;-77
2022/04/19 05:21:37;;;;;;;0.00;0.00;;;;;;;5.23;83.07;98670.53;4807699;29;20039;-77
2022/04/19 05:24:04;;;;;;;0.00;0.00;;;;;;;5.20;81.80;98668.38;4824039;29;20624;-77
2022/04/19 05:26:30;;;;;;;0.00;0.00;;;;;;;5.18;81.84;98676.56;4807514;29;20430;-77
2022/04/19 05:28:56;;;;;;;0.00;0.00;;;;;;;5.13;82.28;98674.66;4823836;29;20560;-77
2022/04/19 05:31:21;;;;;;;0.00;0.00;;;;;;;5.16;82.24;98685.84;4807484;29;20054;-77
2022/04/19 05:33:47;;;;;;;0.00;0.00;;;;;;;5.21;82.24;98676.09;4807547;29;20045;-77
2022/04/19 05:36:12;;;;;;;0.00;0.00;;;;;;;5.22;81.56;98682.19;4823579;29;20403;-77
2022/04/19 05:38:38;;;;;;;0.00;0.00;;;;;;;5.13;82.01;98690.56;4807536;29;20053;-77
2022/04/19 05:41:03;;;;;;;0.00;0.00;;;;;;;5.13;82.49;98692.44;4823599;29;20041;-76
2022/04/19 05:43:29;;;;;;;0.00;0.00;;;;;;;5.14;82.55;98686.09;4823928;29;20031;-76
2022/04/19 05:45:57;;;;;;;0.00;0.00;;;;;;;5.04;81.47;98681.47;4807087;29;20030;-78
2022/04/19 05:48:23;;;;;;;0.00;0.00;;;;;;;5.09;82.19;98686.84;4823614;29;20035;-78
2022/04/19 05:50:48;;;;;;;0.00;0.00;;;;;;;5.06;81.65;98689.97;4823558;29;20111;-76
2022/04/19 05:53:14;;;;;;;0.00;0.00;;;;;;;5.14;81.83;98686.09;4823583;29;20033;-78
2022/04/19 05:55:39;;;;;;;0.00;0.00;;;;;;;5.18;80.97;98683.75;4806286;29;20022;-76
2022/04/19 05:58:05;;;;;;;0.10;0.10;;;;;;;5.21;81.45;98688.53;4806827;29;20023;-76
2022/04/19 06:00:30;;;;;;;0.00;0.00;;;;;;;5.18;81.55;98689.84;4806603;29;20034;-76
2022/04/19 06:05:40;;;;;;;0.00;0.00;;;;;;;5.24;81.15;98693.34;4823198;29;20563;-76
2022/04/19 06:08:05;;;;;;;0.10;0.10;;;;;;;5.24;81.15;98703.94;4822649;29;20057;-76
2022/04/19 06:10:31;;;;;;;0.00;0.00;;;;;;;5.28;81.75;98705.03;4822600;29;20099;-78
2022/04/19 06:12:56;;;;;;;0.00;0.00;;;;;;;5.35;81.89;98710.97;4822449;29;20031;-78
2022/04/19 06:15:21;;;;;;;0.00;0.00;;;;;;;5.33;81.63;98712.25;4822424;29;20038;-76
2022/04/19 06:17:47;;;;;;;0.00;0.00;;;;;;;5.44;81.66;98712.13;4805999;29;20184;-77
2022/04/19 06:20:12;;;;;;;0.00;0.00;;;;;;;5.43;80.88;98718.47;4822541;29;20038;-76
2022/04/19 06:22:38;;;;;;;0.00;0.00;;;;;;;5.45;80.50;98719.00;4822183;29;20038;-77
2022/04/19 06:25:05;;;;;;;0.00;0.00;;;;;;;5.51;81.60;98711.91;4822447;29;20074;-77
2022/04/19 06:27:30;;;;;;;0.00;0.00;;;;;;;5.56;80.05;98716.47;4822631;29;20039;-77
2022/04/19 06:29:57;;;;;;;0.00;0.00;;;;;;;5.50;80.31;98722.78;4806120;29;20182;-77
2022/04/19 06:32:24;;;;;;;0.00;0.00;;;;;;;5.50;80.51;98720.13;4822436;29;20117;-77
2022/04/19 06:34:49;;;;;;;0.00;0.00;;;;;;;5.47;80.73;98710.81;4822120;29;20030;-76
2022/04/19 06:37:15;;;;;;;0.00;0.00;;;;;;;5.46;80.78;98714.50;4821768;29;20034;-78
2022/04/19 06:39:44;;;;;;;0.05;0.05;;;;;;;5.45;80.72;98721.66;4822231;29;20026;-77
2022/04/19 06:42:10;;;;;;;0.00;0.00;;;;;;;5.57;82.08;98721.50;4822532;29;20026;-77
2022/04/19 06:44:35;;;;;;;0.00;0.00;;;;;;;5.64;81.21;98721.31;4805691;29;20054;-76
2022/04/19 06:47:01;;;;;;;0.00;0.00;;;;;;;5.69;81.83;98720.53;4805568;29;20101;-76
2022/04/19 06:49:26;;;;;;;0.00;0.00;;;;;;;5.70;81.35;98720.31;4805724;29;20034;-76
2022/04/19 06:51:52;;;;;;;0.00;0.00;;;;;;;5.72;80.02;98720.84;4805762;29;20124;-76
2022/04/19 06:54:17;;;;;;;0.00;0.00;;;;;;;5.82;81.27;98722.78;4805867;29;20129;-77
2022/04/19 06:56:45;;;;;;;0.20;0.20;;;;;;;5.93;81.52;98723.69;4822358;29;20117;-77
2022/04/19 06:59:11;;;;;;;0.00;0.00;;;;;;;6.05;80.36;98724.34;4822665;29;20034;-76
2022/04/19 07:01:39;;;;;;;0.00;0.00;;;;;;;6.20;80.15;98725.50;4805920;29;20368;-77
2022/04/19 07:04:05;;;;;;;0.70;0.52;;;;;;;6.30;80.15;98722.13;4805660;29;20041;-77
2022/04/19 07:06:30;;;;;;;0.00;0.00;;;;;;;6.26;79.32;98729.78;4821803;29;20429;-79
2022/04/19 07:08:56;;;;;;;0.00;0.00;;;;;;;6.31;78.99;98723.72;4805160;29;20041;-77
2022/04/19 07:11:21;;;;;;;0.00;0.00;;;;;;;6.40;79.47;98732.81;4805225;29;20042;-77
2022/04/19 07:13:46;;;;;;;0.00;0.00;;;;;;;6.47;78.81;98724.63;4822858;29;20118;-77
2022/04/19 07:16:12;;;;;;;0.00;0.00;;;;;;;6.52;78.32;98738.75;4805873;29;20560;-77
2022/04/19 07:18:37;;;;;;;0.10;0.10;;;;;;;6.60;77.92;98726.81;4822576;29;20031;-77
2022/04/19 07:26:45;;;;;;;0.00;0.00;;;;;;;6.62;76.25;98726.59;4822406;29;20084;-78
2022/04/19 07:29:18;;;;;;;0.00;0.00;;;;;;;6.60;76.76;98728.69;4822259;29;20035;-77
2022/04/19 07:31:46;;;;;;;0.00;0.00;;;;;;;6.66;77.25;98728.44;4822515;29;20069;-77
2022/04/19 07:34:13;;;;;;;0.00;0.00;;;;;;;6.64;75.75;98730.59;4822054;29;20031;-77
2022/04/19 07:36:42;;;;;;;0.00;0.00;;;;;;;6.67;77.27;98731.91;4805997;29;20095;-78
2022/04/19 07:39:12;;;;;;;0.00;0.00;;;;;;;6.53;76.90;98732.38;4805623;29;20551;-77
2022/04/19 07:41:39;;;;;;;0.00;0.00;;;;;;;6.55;77.02;98734.75;4824508;29;20118;-78
2022/04/19 07:44:05;;;;;;;0.00;0.00;;;;;;;6.64;76.83;98737.72;4840244;29;20065;-78
2022/04/19 07:46:31;;;;;;;0.00;0.00;;;;;;;6.65;76.55;98736.69;4824154;29;20038;-77
2022/04/19 07:48:57;;;;;;;0.00;0.00;;;;;;;6.72;77.27;98734.59;4823835;29;20053;-77
2022/04/19 07:51:23;;;;;;;0.00;0.00;;;;;;;6.77;76.21;98731.16;4840372;29;20038;-78
2022/04/19 07:53:49;;;;;;;0.00;0.00;;;;;;;6.95;76.99;98741.34;4823861;29;20027;-77
2022/04/19 07:56:14;;;;;;;0.10;0.10;;;;;;;7.05;75.40;98732.63;4823641;29;20391;-78
2022/04/19 07:58:42;;;;;;;0.00;0.00;;;;;;;7.05;73.99;98733.44;4842120;29;20030;-78
2022/04/19 08:01:10;;;;;;;0.00;0.00;;;;;;;6.99;75.72;98731.00;4839904;29;20464;-77
2022/04/19 08:03:35;;;;;;;0.00;0.00;;;;;;;6.97;73.89;98727.78;4839816;29;20072;-78
2022/04/19 08:06:01;;;;;;;0.10;0.10;;;;;;;6.97;73.95;98738.44;4823431;29;20120;-77
2022/04/19 08:08:26;;;;;;;0.00;0.00;;;;;;;7.05;75.22;98735.28;4823675;29;20037;-77
2022/04/19 08:10:52;;;;;;;0.00;0.00;;;;;;;7.13;74.74;98736.63;4823698;29;20037;-77
2022/04/19 08:13:17;;;;;;;0.00;0.00;;;;;;;7.18;75.43;98745.44;4839947;29;20073;-78
2022/04/19 08:15:43;;;;;;;0.00;0.00;;;;;;;7.18;73.41;98737.44;4823639;29;20041;-77
2022/04/19 08:18:13;;;;;;;0.00;0.00;;;;;;;7.16;71.76;98747.53;4823371;29;20434;-77
2022/04/19 08:20:39;;;;;;;0.00;0.00;;;;;;;7.10;72.11;98737.94;4842867;29;20026;-77
2022/04/19 08:23:05;;;;;;;0.00;0.00;;;;;;;7.05;71.19;98736.09;4843044;29;20129;-76
2022/04/19 08:25:32;;;;;;;0.00;0.00;;;;;;;6.99;73.01;98739.75;4843018;29;20530;-77
2022/04/19 08:27:58;;;;;;;0.00;0.00;;;;;;;7.10;73.46;98743.25;4826472;29;20066;-77
2022/04/19 08:30:23;;;;;;;0.00;0.00;;;;;;;7.14;72.64;98739.03;4826552;29;20182;-77
2022/04/19 08:32:49;;;;;;;0.00;0.00;;;;;;;7.15;71.59;98739.84;4843535;29;20053;-77
2022/04/19 08:35:17;;;;;;;0.00;0.00;;;;;;;7.22;72.99;98737.72;4826288;29;20554;-77
2022/04/19 08:37:42;;;;;;;0.20;0.20;;;;;;;7.21;71.07;98736.94;4842969;29;20036;-77
2022/04/19 08:40:10;;;;;;;0.00;0.00;;;;;;;7.26;70.94;98743.31;4842770;29;20426;-77
2022/04/19 08:42:38;;;;;;;0.08;0.08;;;;;;;7.31;71.04;98738.84;4842892;29;20030;-77
2022/04/19 08:45:05;;;;;;;0.00;0.00;;;;;;;7.37;71.08;98743.09;4842948;29;20094;-76
2022/04/19 08:47:31;;;;;;;0.00;0.00;;;;;;;7.47;71.26;98742.34;4842821;29;20050;-76
2022/04/19 08:50:00;;;;;;;0.00;0.00;;;;;;;7.48;68.96;98749.25;4842879;29;20033;-76
2022/04/19 08:52:26;;;;;;;0.00;0.00;;;;;;;7.43;68.74;98743.91;4842935;29;20030;-77
2022/04/19 08:57:37;;;;;;;0.00;0.00;;;;;;;7.42;69.08;98739.66;4842688;29;20049;-77
2022/04/19 09:00:05;;;;;;;0.05;0.05;;;;;;;7.35;68.15;98736.44;4843072;29;20034;-77
2022/04/19 09:02:32;;;;;;;0.00;0.00;;;;;;;7.38;68.53;98738.56;4842756;29;20073;-78
2022/04/19 09:05:16;;;;;;;0.10;0.10;;;;;;;7.39;68.81;98745.50;4842586;29;20114;-76
2022/04/19 09:07:43;;;;;;;0.00;0.00;;;;;;;7.37;70.75;98734.31;4826219;29;20029;-77
2022/04/19 09:10:14;;;;;;;0.00;0.00;;;;;;;7.44;70.57;98731.41;4842442;29;20490;-77
2022/04/19 09:12:55;;;;;;;0.00;0.00;;;;;;;7.39;67.20;98739.38;4826108;29;20030;-77
2022/04/19 09:15:21;;;;;;;0.00;0.00;;;;;;;7.50;68.27;98735.69;4825763;29;20045;-78
2022/04/19 09:17:48;;;;;;;0.10;0.10;;;;;;;7.52;67.86;98736.22;4825868;29;20034;-78
2022/04/19 09:20:18;;;;;;;0.05;0.05;;;;;;;7.56;67.87;98747.16;4842178;29;20077;-78
2022/04/19 09:22:45;;;;;;;0.00;0.00;;;;;;;7.64;67.96;98743.94;4825694;29;20086;-78
2022/04/19 09:25:16;;;;;;;0.20;0.20;;;;;;;7.71;68.37;98741.81;4825630;29;20448;-77
2022/04/19 09:27:43;;;;;;;0.00;0.00;;;;;;;7.81;68.53;98744.53;4842439;29;20034;-78
2022/04/19 09:30:22;;;;;;;0.00;0.00;;;;;;;7.81;66.62;98744.53;4824880;29;20038;-77
2022/04/19 09:33:11;;;;;;;0.00;0.00;;;;;;;7.94;65.52;98747.72;4841957;29;20037;-78
2022/04/19 09:35:45;;;;;;;0.47;0.47;;;;;;;7.98;65.99;98744.25;4841947;29;20085;-78
2022/04/19 09:38:12;;;;;;;0.10;0.10;;;;;;;8.06;66.18;98748.25;4825175;29;20513;-78
2022/04/19 09:40:48;;;;;;;0.00;0.00;;;;;;;8.07;66.02;98741.88;4842013;29;20034;-78
2022/04/19 09:43:16;;;;;;;0.00;0.00;;;;;;;8.15;66.00;98752.00;4841645;29;20033;-77
2022/04/19 09:45:51;;;;;;;0.00;0.00;;;;;;;8.10;65.61;98743.19;4841938;29;20040;-76
2022/04/19 09:48:24;;;;;;;0.30;0.30;;;;;;;8.15;65.46;98759.16;4825269;29;20459;-76
2022/04/19 09:50:52;;;;;;;0.00;0.00;;;;;;;8.10;66.53;98754.63;4841915;29;20034;-78
2022/04/19 09:53:23;;;;;;;0.00;0.00;;;;;;;8.04;66.11;98754.91;4841528;29;20026;-76
2022/04/19 09:55:50;;;;;;;0.00;0.00;;;;;;;8.01;66.76;98750.91;4841621;29;20038;-76
2022/04/19 09:58:16;;;;;;;0.00;0.00;;;;;;;8.02;66.88;98747.19;4841406;29;20067;-78
2022/04/19 10:00:44;;;;;;;0.00;0.00;;;;;;;8.06;67.47;98755.44;4825127;29;20033;-78
2022/04/19 10:08:40;;;;;;;0.00;0.00;;;;;;;8.08;67.01;98759.44;4841516;29;20034;-77
2022/04/19 10:11:06;;;;;;;0.00;0.00;;;;;;;8.14;67.45;98760.22;4840871;29;20113;-78
2022/04/19 10:13:33;;;;;;;0.35;0.35;;;;;;;8.14;66.33;98755.72;4825028;29;20056;-78
2022/04/19 10:15:59;;;;;;;0.10;0.10;;;;;;;8.21;67.37;98759.97;4824906;29;20487;-78
2022/04/19 10:18:24;;;;;;;0.00;0.00;;;;;;;8.21;66.89;98755.44;4824484;29;20038;-77
2022/04/19 10:20:56;;;;;;;0.00;0.00;;;;;;;8.28;67.32;98758.63;4824849;29;20570;-76
2022/04/19 10:23:34;;;;;;;0.00;0.00;;;;;;;8.42;66.63;98758.09;4840695;29;20423;-77
2022/04/19 10:26:14;;;;;;;0.00;0.00;;;;;;;8.37;65.59;98758.88;4841135;29;20030;-77
2022/04/19 10:28:40;;;;;;;0.00;0.00;;;;;;;8.43;65.44;98760.47;4841129;29;20038;-79
2022/04/19 10:31:07;;;;;;;0.00;0.00;;;;;;;8.45;65.27;98758.34;4840703;29;20042;-79
2022/04/19 10:33:39;;;;;;;0.10;0.10;;;;;;;8.46;64.47;98757.31;4840718;29;20034;-78
2022/04/19 10:36:13;;;;;;;0.00;0.00;;;;;;;8.50;64.00;98754.91;4841282;29;20037;-78
2022/04/19 10:38:39;;;;;;;0.10;0.10;;;;;;;8.51;64.21;98751.19;4824450;29;20029;-79
2022/04/19 10:41:04;;;;;;;0.00;0.00;;;;;;;8.47;62.85;98750.91;4824458;29;20391;-78
2022/04/19 10:43:30;;;;;;;0.00;0.00;;;;;;;8.53;63.12;98748.25;4840516;29;20462;-77
2022/04/19 10:46:16;;;;;;;0.03;0.03;;;;;;;8.53;63.83;98748.25;4824489;29;20121;-78
2022/04/19 10:49:19;;;;;;;0.10;0.10;;;;;;;8.61;63.95;98755.69;4840895;29;20101;-78
2022/04/19 10:51:44;;;;;;;0.00;0.00;;;;;;;8.54;63.09;98753.28;4840577;29;20042;-78
2022/04/19 10:54:10;;;;;;;0.13;0.13;;;;;;;8.58;63.16;98757.03;4824120;29;20030;-78
2022/04/19 10:58:06;;;;;;;0.00;0.00;;;;;;;8.61;62.61;98753.81;4824449;29;20041;-78
2022/04/19 11:00:00;;;;;;;0.00;0.00;;;;;;;8.72;63.44;98756.47;4840382;29;20121;-78
2022/04/19 11:02:36;;;;;;;0.00;0.00;;;;;;;8.75;62.53;98756.72;4824000;29;20029;-77
2022/04/19 11:05:03;;;;;;;0.20;0.20;;;;;;;8.81;62.51;98760.16;4824306;29;20045;-77
2022/04/19 11:07:41;;;;;;;0.00;0.00;;;;;;;8.78;60.97;98758.06;4840190;29;20102;-77
2022/04/19 11:10:06;;;;;;;;;;;;;;;8.81;61.82;98755.66;4824762;29;20029;-77
2022/04/19 11:13:01;;;;;;;0.00;0.00;;;;;;;8.78;61.49;98760.72;4824056;29;20299;-77
2022/04/19 11:15:42;;;;;;;0.00;0.00;;;;;;;8.70;61.35;98750.59;4840501;29;20543;-77
2022/04/19 11:18:24;;;;;;;0.00;0.00;;;;;;;8.85;60.78;98755.09;4824222;29;20403;-77
2022/04/19 11:20:50;;;;;;;0.95;0.90;;;;;;;8.93;61.40;98746.53;4840511;29;20044;-77
2022/04/19 11:23:21;;;;;;;0.10;0.10;;;;;;;9.04;61.11;98742.75;4840424;29;20049;-77
2022/04/19 11:25:47;;;;;;;2.70;0.90;;;;;;;9.19;61.18;98741.09;4824032;29;20069;-77
2022/04/19 11:28:14;;;;;;;0.00;0.00;;;;;;;9.22;60.93;98745.91;4840260;29;20521;-78
2022/04/19 11:30:44;;;;;;;0.47;0.47;;;;;;;9.12;59.62;98736.06;4824029;29;20033;-78
2022/04/19 11:33:10;;;;;;;0.28;0.28;;;;;;;9.12;60.44;98742.19;4840373;29;20411;-78
2022/04/19 11:35:36;;;;;;;0.20;0.20;;;;;;;9.11;60.01;98737.91;4823920;29;20026;-78
2022/04/19 11:38:08;;;;;;;0.00;0.00;;;;;;;9.17;60.00;98738.72;4824063;29;20061;-78
2022/04/19 11:49:02;;;;;;;0.00;0.00;;;;;;;8.99;61.67;98739.31;4840175;29;20048;-78
2022/04/19 11:51:27;;;;;;;0.00;0.00;;;;;;;8.93;62.47;98744.66;4823560;29;20483;-78
2022/04/19 11:53:52;;;;;;;0.05;0.05;;;;;;;8.91;62.11;98746.00;4824479;29;20467;-78
2022/04/19 11:56:18;;;;;;;0.17;0.17;;;;;;;8.92;62.72;98728.94;4826286;29;20042;-78
2022/04/19 11:58:52;;;;;;;0.65;0.65;;;;;;;8.97;62.36;98747.56;4827014;29;20033;-78
2022/04/19 12:01:18;;;;;;;0.30;0.30;;;;;;;9.07;62.65;98728.06;4826421;29;20033;-78
2022/04/19 12:03:43;;;;;;;0.00;0.00;;;;;;;9.17;61.23;98730.69;4826599;29;20893;-78
2022/04/19 12:06:16;;;;;;;0.30;0.30;;;;;;;9.22;59.74;98728.00;4826266;29;20069;-78
2022/04/19 12:08:42;;;;;;;0.10;0.10;;;;;;;9.26;58.96;98728.25;4826240;29;20050;-78
2022/04/19 12:11:16;;;;;;;0.05;0.05;;;;;;;9.21;58.86;98728.28;4826170;29;20038;-78
2022/04/19 12:13:43;;;;;;;0.00;0.00;;;;;;;9.35;59.16;98733.81;4842723;29;20040;-78
2022/04/19 12:16:29;;;;;;;0.40;0.40;;;;;;;9.40;60.09;98733.81;4826024;29;20038;-78
2022/04/19 12:18:55;;;;;;;0.00;0.00;;;;;;;9.50;60.45;98725.72;4842300;29;20045;-78
2022/04/19 12:21:39;;;;;;;0.00;0.00;;;;;;;9.60;60.60;98720.31;4825738;29;20591;-78
2022/04/19 12:24:07;;;;;;;0.00;0.00;;;;;;;9.81;59.35;98717.50;4842307;29;20406;-78
2022/04/19 12:26:33;;;;;;;0.10;0.10;;;;;;;9.69;59.59;98725.06;4842136;29;20191;-77
2022/04/19 12:29:11;;;;;;;0.20;0.20;;;;;;;9.70;58.54;98713.31;4842649;29;20106;-78
2022/04/19 12:31:39;;;;;;;;;;;;;;;9.80;58.71;98712.44;4826089;29;20483;-78
2022/04/19 12:34:05;;;;;;;0.05;0.05;;;;;;;9.81;57.96;98709.47;4825841;29;19984;-78
2022/04/19 12:36:45;;;;;;;0.10;0.10;;;;;;;9.72;57.27;98701.28;4825283;29;20061;-78
2022/04/19 12:39:11;;;;;;;0.00;0.00;;;;;;;9.67;57.17;98692.53;4825497;29;20037;-78
2022/04/19 12:41:38;;;;;;;0.30;0.30;;;;;;;9.70;57.33;98697.28;4825378;29;20036;-78
2022/04/19 12:44:06;;;;;;;0.00;0.00;;;;;;;9.72;57.78;98703.16;4825353;29;20110;-78
2022/04/19 12:46:31;;;;;;;0.00;0.00;;;;;;;9.77;56.77;98703.09;4841830;29;20406;-78
2022/04/19 12:48:57;;;;;;;0.00;0.00;;;;;;;9.82;57.67;98699.59;4825544;29;20033;-78
2022/04/19 12:51:26;;;;;;;0.00;0.00;;;;;;;9.85;56.68;98696.38;4825201;29;20074;-78
2022/04/19 12:54:02;;;;;;;0.00;0.00;;;;;;;9.86;57.05;98701.44;4825483;29;20093;-78
2022/04/19 12:56:28;;;;;;;0.00;0.00;;;;;;;9.86;56.73;98693.44;4824970;29;20073;-78
2022/04/19 12:58:53;;;;;;;0.15;0.15;;;;;;;9.87;55.51;98699.56;4842254;29;20068;-78
2022/04/19 13:01:19;;;;;;;0.10;0.10;;;;;;;9.71;54.83;98701.56;4825202;29;20037;-78
2022/04/19 13:03:44;;;;;;;0.20;0.20;;;;;;;9.75;56.01;98694.56;4825296;29;20033;-78
2022/04/19 13:14:21;;;;;;;0.00;0.00;;;;;;;10.20;55.02;98681.09;4841893;29;20049;-78
2022/04/19 13:16:47;;;;;;;0.10;0.10;;;;;;;10.24;54.24;98690.13;4825690;29;20034;-77
2022/04/19 13:19:13;;;;;;;0.30;0.30;;;;;;;10.29;54.03;98684.75;4825679;29;20030;-78
2022/04/19 13:21:39;;;;;;;0.03;0.03;;;;;;;10.30;53.68;98683.69;4825292;29;20041;-78
2022/04/19 13:24:06;;;;;;;0.00;0.00;;;;;;;10.32;52.88;98678.84;4842181;29;20410;-77
2022/04/19 13:26:32;;;;;;;0.40;0.40;;;;;;;10.39;51.98;98678.56;4825536;29;20046;-77
2022/04/19 13:28:57;;;;;;;0.28;0.28;;;;;;;10.30;51.74;98688.22;4842011;29;20034;-78
2022/04/19 13:31:23;;;;;;;0.00;0.00;;;;;;;10.16;51.30;98691.56;4825459;29;20069;-78
2022/04/19 13:33:50;;;;;;;0.00;0.00;;;;;;;10.14;51.20;98690.25;4825733;29;20065;-78
2022/04/19 13:36:16;;;;;;;0.00;0.00;;;;;;;10.12;50.50;98689.72;4841542;29;20590;-79